Time;durP1;ratioP1;P1;durP2;ratioP2;P2;SDS_P1;SDS_P2;PMS_P1;PMS_P2;Temp;Humidity;BMP_temperature;BMP_pressure;BME280_temperature;BME280_humidity;BME280_pressure;Samples;Min_cycle;Max_cycle;Signal;HPM_P1;HPM_P2
2021/07/06 00:00:11;;;;;;;0.20;0.20;;;;;;;;;;5091976;28;20471;-51
2021/07/06 00:02:36;;;;;;;0.35;0.30;;;;;;;;;;5076388;28;20098;-53
2021/07/06 00:05:01;;;;;;;0.47;0.40;;;;;;;;;;5090375;28;20024;-50
2021/07/06 00:07:27;;;;;;;0.40;0.40;;;;;;;;;;5079826;28;20048;-53
2021/07/06 00:09:52;;;;;;;0.93;0.30;;;;;;;;;;5095980;28;20085;-53
2021/07/06 00:12:18;;;;;;;1.27;0.32;;;;;;;;;;5092918;28;20360;-51
2021/07/06 00:14:43;;;;;;;1.80;0.40;;;;;;;;;;5084293;28;20095;-53
2021/07/06 00:17:09;;;;;;;1.33;0.30;;;;;;;;;;5084024;28;20047;-52
2021/07/06 00:19:34;;;;;;;0.60;0.40;;;;;;;;;;5075397;28;20024;-48
2021/07/06 00:21:59;;;;;;;3.08;0.30;;;;;;;;;;5084769;28;20024;-52
2021/07/06 00:24:25;;;;;;;1.73;0.40;;;;;;;;;;5079629;28;20052;-51
2021/07/06 00:26:50;;;;;;;0.65;0.30;;;;;;;;;;5075910;28;20027;-50
2021/07/06 00:29:16;;;;;;;0.57;0.30;;;;;;;;;;5081265;28;20467;-53
2021/07/06 00:31:41;;;;;;;0.57;0.32;;;;;;;;;;5092566;28;20100;-52
2021/07/06 00:34:06;;;;;;;1.00;0.50;;;;;;;;;;5095889;28;20046;-55
2021/07/06 00:36:31;;;;;;;0.68;0.40;;;;;;;;;;5094484;28;20035;-55
2021/07/06 00:38:56;;;;;;;0.40;0.40;;;;;;;;;;5079380;28;20024;-54
2021/07/06 00:41:22;;;;;;;1.05;0.30;;;;;;;;;;5074838;28;20507;-53
2021/07/06 00:43:47;;;;;;;1.67;0.40;;;;;;;;;;5091333;28;20468;-52
2021/07/06 00:46:12;;;;;;;0.95;0.35;;;;;;;;;;5091849;28;20071;-52
2021/07/06 00:48:37;;;;;;;2.15;0.40;;;;;;;;;;5094416;28;20024;-52
2021/07/06 00:51:02;;;;;;;2.03;0.65;;;;;;;;;;5089433;28;20090;-54
2021/07/06 00:53:28;;;;;;;0.75;0.30;;;;;;;;;;5081941;28;20028;-49
2021/07/06 00:55:55;;;;;;;1.13;0.50;;;;;;;;;;5091937;28;20013;-50
2021/07/06 00:58:20;;;;;;;0.88;0.30;;;;;;;;;;5095214;28;20031;-54
2021/07/06 01:00:46;;;;;;;1.15;0.30;;;;;;;;;;5078398;28;20016;-54
2021/07/06 01:03:11;;;;;;;0.40;0.40;;;;;;;;;;5082653;28;20051;-53
2021/07/06 01:05:37;;;;;;;0.50;0.40;;;;;;;;;;5075373;28;20024;-51
2021/07/06 01:08:02;;;;;;;1.02;0.40;;;;;;;;;;5082647;28;20024;-54
2021/07/06 01:10:27;;;;;;;1.52;0.40;;;;;;;;;;5076497;28;20105;-53
2021/07/06 01:12:53;;;;;;;1.05;0.40;;;;;;;;;;5087421;28;20020;-54
2021/07/06 01:15:20;;;;;;;2.63;0.30;;;;;;;;;;5094725;28;20482;-52
2021/07/06 01:17:46;;;;;;;0.73;0.32;;;;;;;;;;5076256;28;20024;-53
2021/07/06 01:20:14;;;;;;;0.95;0.30;;;;;;;;;;5074003;28;20028;-55
2021/07/06 01:22:39;;;;;;;2.20;1.23;;;;;;;;;;5071945;28;20031;-54
2021/07/06 01:25:07;;;;;;;1.05;0.40;;;;;;;;;;5074782;28;20021;-53
2021/07/06 01:27:32;;;;;;;0.55;0.30;;;;;;;;;;5074778;28;20033;-55
2021/07/06 01:29:58;;;;;;;1.45;0.60;;;;;;;;;;5083732;28;20032;-54
2021/07/06 01:32:23;;;;;;;2.28;0.40;;;;;;;;;;5081241;28;20031;-53
2021/07/06 01:34:48;;;;;;;1.23;0.32;;;;;;;;;;5078903;28;20467;-51
2021/07/06 01:37:17;;;;;;;0.88;0.30;;;;;;;;;;5091362;28;20024;-53
2021/07/06 01:39:42;;;;;;;2.05;0.40;;;;;;;;;;5094366;28;20039;-53
2021/07/06 01:42:08;;;;;;;2.15;0.30;;;;;;;;;;5088763;28;20015;-54
2021/07/06 01:44:33;;;;;;;2.33;0.40;;;;;;;;;;5079990;28;20100;-50
2021/07/06 01:46:58;;;;;;;3.53;0.47;;;;;;;;;;5093634;28;20035;-53
2021/07/06 01:49:23;;;;;;;0.50;0.30;;;;;;;;;;5091899;28;20031;-53
2021/07/06 01:51:49;;;;;;;0.85;0.40;;;;;;;;;;5076379;28;20104;-53
2021/07/06 01:54:14;;;;;;;0.38;0.30;;;;;;;;;;5084878;28;20020;-48
2021/07/06 01:56:41;;;;;;;1.02;0.30;;;;;;;;;;5087158;28;20017;-51
2021/07/06 01:59:06;;;;;;;0.82;0.30;;;;;;;;;;5093601;28;20131;-53
2021/07/06 02:01:32;;;;;;;0.85;0.30;;;;;;;;;;5090041;28;20111;-53
2021/07/06 02:03:57;;;;;;;1.05;0.40;;;;;;;;;;5081142;28;20112;-52
2021/07/06 02:06:22;;;;;;;1.30;0.50;;;;;;;;;;5092787;28;20028;-54
2021/07/06 02:08:47;;;;;;;0.50;0.30;;;;;;;;;;5078872;28;20513;-51
2021/07/06 02:11:13;;;;;;;0.25;0.25;;;;;;;;;;5070078;28;20024;-52
2021/07/06 02:13:38;;;;;;;1.25;0.40;;;;;;;;;;5083300;28;20020;-53
2021/07/06 02:16:03;;;;;;;0.35;0.30;;;;;;;;;;5091267;28;20067;-54
2021/07/06 02:18:29;;;;;;;1.33;0.38;;;;;;;;;;5090816;28;20459;-54
2021/07/06 02:20:55;;;;;;;0.30;0.30;;;;;;;;;;5082538;28;20098;-53
2021/07/06 02:23:21;;;;;;;0.57;0.40;;;;;;;;;;5071728;28;20028;-52
2021/07/06 02:25:47;;;;;;;1.42;0.40;;;;;;;;;;5077741;28;20020;-52
2021/07/06 02:28:12;;;;;;;1.60;0.30;;;;;;;;;;5082358;28;20075;-55
2021/07/06 02:30:37;;;;;;;0.70;0.30;;;;;;;;;;5070214;28;20067;-51
2021/07/06 02:33:02;;;;;;;0.50;0.32;;;;;;;;;;5074290;28;20036;-51
2021/07/06 02:35:28;;;;;;;3.13;0.55;;;;;;;;;;5084984;28;20023;-52
2021/07/06 02:37:56;;;;;;;1.67;0.73;;;;;;;;;;5077464;28;20387;-52
2021/07/06 02:40:21;;;;;;;0.73;0.50;;;;;;;;;;5072018;28;20460;-50
2021/07/06 02:42:46;;;;;;;0.52;0.40;;;;;;;;;;5081258;28;20019;-53
2021/07/06 02:45:13;;;;;;;1.40;0.70;;;;;;;;;;5086277;28;20472;-51
2021/07/06 02:47:38;;;;;;;1.00;0.50;;;;;;;;;;5083501;28;20048;-52
2021/07/06 02:50:05;;;;;;;0.88;0.60;;;;;;;;;;5070805;28;20075;-53
2021/07/06 02:52:30;;;;;;;0.98;0.60;;;;;;;;;;5088008;28;20013;-54
2021/07/06 02:54:55;;;;;;;1.23;0.73;;;;;;;;;;5092397;28;20375;-54
2021/07/06 02:57:36;;;;;;;2.35;0.52;;;;;;;;;;5075914;28;20551;-52
2021/07/06 03:00:22;;;;;;;1.95;0.50;;;;;;;;;;5073086;28;20032;-54
2021/07/06 03:02:48;;;;;;;1.40;0.50;;;;;;;;;;5065325;28;20044;-54
2021/07/06 03:05:14;;;;;;;0.85;0.45;;;;;;;;;;5087798;28;20032;-54
2021/07/06 03:07:40;;;;;;;1.65;0.60;;;;;;;;;;5086315;28;20051;-55
2021/07/06 03:10:07;;;;;;;2.13;0.77;;;;;;;;;;5072005;28;20224;-54
2021/07/06 03:12:32;;;;;;;2.22;0.77;;;;;;;;;;5070295;28;20043;-54
2021/07/06 03:14:57;;;;;;;0.95;0.57;;;;;;;;;;5091602;28;20028;-54
2021/07/06 03:17:22;;;;;;;2.00;0.60;;;;;;;;;;5091807;28;20024;-55
2021/07/06 03:19:48;;;;;;;1.75;0.63;;;;;;;;;;5092293;28;20015;-55
2021/07/06 03:22:13;;;;;;;1.55;0.70;;;;;;;;;;5081183;28;20107;-54
2021/07/06 03:24:38;;;;;;;0.52;0.52;;;;;;;;;;5091700;28;20028;-53
2021/07/06 03:27:04;;;;;;;1.42;0.40;;;;;;;;;;5077477;28;20025;-52
2021/07/06 03:29:29;;;;;;;0.75;0.50;;;;;;;;;;5071906;28;20460;-51
2021/07/06 03:31:54;;;;;;;0.40;0.40;;;;;;;;;;5085480;28;20032;-53
2021/07/06 03:34:20;;;;;;;1.33;0.50;;;;;;;;;;5085611;28;20009;-54
2021/07/06 03:36:45;;;;;;;0.55;0.50;;;;;;;;;;5083186;28;20024;-54
2021/07/06 03:39:10;;;;;;;0.50;0.50;;;;;;;;;;5089367;28;20059;-52
2021/07/06 03:41:36;;;;;;;0.40;0.40;;;;;;;;;;5088676;28;20383;-54
2021/07/06 03:44:01;;;;;;;4.25;0.80;;;;;;;;;;5091226;28;20043;-54
2021/07/06 03:46:27;;;;;;;0.63;0.50;;;;;;;;;;5087306;28;20486;-53
2021/07/06 03:48:52;;;;;;;0.60;0.60;;;;;;;;;;5092038;28;20471;-50
2021/07/06 03:51:17;;;;;;;1.15;0.65;;;;;;;;;;5079543;28;20020;-52
2021/07/06 03:53:42;;;;;;;0.98;0.50;;;;;;;;;;5085327;28;20016;-49
2021/07/06 03:56:07;;;;;;;0.57;0.40;;;;;;;;;;5079986;28;20487;-51
2021/07/06 03:58:33;;;;;;;1.25;0.47;;;;;;;;;;5071874;28;20032;-53
2021/07/06 04:00:58;;;;;;;0.68;0.38;;;;;;;;;;5077061;28;20043;-55
2021/07/06 04:03:25;;;;;;;1.20;0.38;;;;;;;;;;5077413;28;20036;-52
2021/07/06 04:05:50;;;;;;;1.42;0.30;;;;;;;;;;5074839;28;20020;-50
2021/07/06 04:08:16;;;;;;;2.20;0.40;;;;;;;;;;5079154;28;20024;-54
2021/07/06 04:10:41;;;;;;;1.35;0.65;;;;;;;;;;5076835;28;20487;-54
2021/07/06 04:13:06;;;;;;;3.20;0.52;;;;;;;;;;5088309;28;20034;-52
2021/07/06 04:15:31;;;;;;;0.60;0.30;;;;;;;;;;5078977;28;20020;-53
2021/07/06 04:17:56;;;;;;;1.15;0.30;;;;;;;;;;5091381;28;20020;-50
2021/07/06 04:20:22;;;;;;;0.70;0.40;;;;;;;;;;5087876;28;20016;-51
2021/07/06 04:22:48;;;;;;;0.73;0.50;;;;;;;;;;5070006;28;20005;-54
2021/07/06 04:25:13;;;;;;;2.40;0.47;;;;;;;;;;5087494;28;20055;-54
2021/07/06 04:27:38;;;;;;;0.88;0.25;;;;;;;;;;5091907;28;20044;-52
2021/07/06 04:30:07;;;;;;;4.03;0.47;;;;;;;;;;5084388;28;20548;-52
2021/07/06 04:32:32;;;;;;;2.03;0.40;;;;;;;;;;5070260;28;20468;-54
2021/07/06 04:34:58;;;;;;;1.20;0.50;;;;;;;;;;5081118;28;20024;-54
2021/07/06 04:37:23;;;;;;;1.55;0.30;;;;;;;;;;5089955;28;20021;-54
2021/07/06 04:39:48;;;;;;;1.17;0.30;;;;;;;;;;5084671;28;20028;-52
2021/07/06 04:42:16;;;;;;;0.40;0.30;;;;;;;;;;5091932;28;20020;-53
2021/07/06 04:44:41;;;;;;;1.33;0.32;;;;;;;;;;5094318;28;20498;-51
2021/07/06 04:47:06;;;;;;;1.75;0.52;;;;;;;;;;5080360;28;20024;-51
2021/07/06 04:49:32;;;;;;;1.38;0.30;;;;;;;;;;5093447;28;20109;-52
2021/07/06 04:51:57;;;;;;;0.30;0.20;;;;;;;;;;5080750;28;20464;-50
2021/07/06 04:54:25;;;;;;;0.98;0.30;;;;;;;;;;5081112;28;20460;-54
2021/07/06 04:56:51;;;;;;;1.73;0.20;;;;;;;;;;5075330;28;20189;-55
2021/07/06 04:59:16;;;;;;;0.38;0.20;;;;;;;;;;5086791;28;20020;-52
2021/07/06 05:01:42;;;;;;;0.98;0.20;;;;;;;;;;5083182;28;20028;-54
2021/07/06 05:04:07;;;;;;;2.22;0.30;;;;;;;;;;5093099;28;20453;-55
2021/07/06 05:06:32;;;;;;;0.73;0.30;;;;;;;;;;5081211;28;20060;-55
2021/07/06 05:08:59;;;;;;;2.53;0.30;;;;;;;;;;5075593;28;20471;-53
2021/07/06 05:11:24;;;;;;;0.88;0.25;;;;;;;;;;5072062;28;20104;-53
2021/07/06 05:13:49;;;;;;;2.00;0.30;;;;;;;;;;5087757;28;20098;-48
2021/07/06 05:16:15;;;;;;;1.95;0.30;;;;;;;;;;5076111;28;20055;-54
2021/07/06 05:18:40;;;;;;;3.08;0.30;;;;;;;;;;5086354;28;20099;-55
2021/07/06 05:21:05;;;;;;;0.40;0.40;;;;;;;;;;5091162;28;20035;-54
2021/07/06 05:23:30;;;;;;;1.02;0.20;;;;;;;;;;5092220;28;20019;-54
2021/07/06 05:25:56;;;;;;;0.55;0.30;;;;;;;;;;5074893;28;20464;-53
2021/07/06 05:28:21;;;;;;;1.92;0.20;;;;;;;;;;5083813;28;20031;-55
2021/07/06 05:30:46;;;;;;;0.30;0.20;;;;;;;;;;5090573;28;20089;-53
2021/07/06 05:33:11;;;;;;;1.52;0.17;;;;;;;;;;5086901;28;20095;-54
2021/07/06 05:35:37;;;;;;;1.17;0.20;;;;;;;;;;5081508;28;20488;-54
2021/07/06 05:38:03;;;;;;;0.82;0.40;;;;;;;;;;5089157;28;20017;-51
2021/07/06 05:40:28;;;;;;;1.60;0.43;;;;;;;;;;5079311;28;20043;-55
2021/07/06 05:42:53;;;;;;;1.23;0.22;;;;;;;;;;5092296;28;20016;-52
2021/07/06 05:45:19;;;;;;;4.32;0.25;;;;;;;;;;5082303;28;20095;-50
2021/07/06 05:47:44;;;;;;;1.52;0.20;;;;;;;;;;5093860;28;20020;-54
2021/07/06 05:50:13;;;;;;;1.23;0.35;;;;;;;;;;5092396;28;20471;-49
2021/07/06 05:52:39;;;;;;;3.05;0.28;;;;;;;;;;5088696;28;20023;-54
2021/07/06 05:55:05;;;;;;;0.82;0.20;;;;;;;;;;5092217;28;20028;-55
2021/07/06 05:57:30;;;;;;;2.22;0.30;;;;;;;;;;5093440;28;20020;-54
2021/07/06 05:59:56;;;;;;;0.50;0.20;;;;;;;;;;5084524;28;20046;-54
2021/07/06 06:02:22;;;;;;;0.20;0.20;;;;;;;;;;5084426;28;20043;-51
2021/07/06 06:04:47;;;;;;;1.27;0.20;;;;;;;;;;5091575;28;20085;-53
2021/07/06 06:07:12;;;;;;;0.30;0.20;;;;;;;;;;5093678;28;20024;-53
2021/07/06 06:09:37;;;;;;;0.35;0.20;;;;;;;;;;5080312;28;20023;-52
2021/07/06 06:12:03;;;;;;;0.60;0.20;;;;;;;;;;5078184;28;20024;-52
2021/07/06 06:14:28;;;;;;;0.57;0.35;;;;;;;;;;5079261;28;20024;-51
2021/07/06 06:16:53;;;;;;;1.58;0.30;;;;;;;;;;5088968;28;20103;-53
2021/07/06 06:19:18;;;;;;;1.02;0.40;;;;;;;;;;5078790;28;20487;-55
2021/07/06 06:21:43;;;;;;;0.77;0.20;;;;;;;;;;5079927;28;20063;-52
2021/07/06 06:24:09;;;;;;;1.37;0.40;;;;;;;;;;5076089;28;20757;-51
2021/07/06 06:26:34;;;;;;;1.97;0.20;;;;;;;;;;5075725;28;20279;-51
2021/07/06 06:28:59;;;;;;;1.23;0.20;;;;;;;;;;5079153;28;20275;-54
2021/07/06 06:31:24;;;;;;;0.60;0.20;;;;;;;;;;5079419;28;20293;-56
2021/07/06 06:33:49;;;;;;;0.93;0.20;;;;;;;;;;5092694;28;20043;-54
2021/07/06 06:36:15;;;;;;;0.95;0.20;;;;;;;;;;5091964;28;20016;-53
2021/07/06 06:38:40;;;;;;;1.20;0.20;;;;;;;;;;5086599;28;20016;-53
2021/07/06 06:41:05;;;;;;;4.90;0.30;;;;;;;;;;5073798;28;20131;-53
2021/07/06 06:43:30;;;;;;;0.43;0.20;;;;;;;;;;5085950;28;20100;-55
2021/07/06 06:45:56;;;;;;;1.17;0.20;;;;;;;;;;5076248;28;20024;-55
2021/07/06 06:48:21;;;;;;;0.50;0.20;;;;;;;;;;5086438;28;20751;-54
2021/07/06 06:50:46;;;;;;;1.42;0.20;;;;;;;;;;5075502;28;20102;-51
2021/07/06 06:53:12;;;;;;;1.17;0.20;;;;;;;;;;5085255;28;20016;-54
2021/07/06 06:55:37;;;;;;;1.45;0.20;;;;;;;;;;5085115;28;20261;-55
2021/07/06 06:58:02;;;;;;;0.95;0.15;;;;;;;;;;5090890;28;20374;-56
2021/07/06 07:00:28;;;;;;;0.55;0.20;;;;;;;;;;5086286;28;20020;-55
2021/07/06 07:02:55;;;;;;;0.30;0.20;;;;;;;;;;5070955;28;20056;-54
2021/07/06 07:05:20;;;;;;;1.15;0.20;;;;;;;;;;5080901;28;20016;-53
2021/07/06 07:07:45;;;;;;;0.83;0.13;;;;;;;;;;5085964;28;20031;-55
2021/07/06 07:10:11;;;;;;;2.97;0.13;;;;;;;;;;5083312;28;20277;-54
2021/07/06 07:12:36;;;;;;;0.20;0.20;;;;;;;;;;5076217;28;20036;-52
2021/07/06 07:15:04;;;;;;;0.52;0.30;;;;;;;;;;5084547;28;20028;-54
2021/07/06 07:17:30;;;;;;;3.13;0.20;;;;;;;;;;5077007;28;20031;-54
2021/07/06 07:19:55;;;;;;;1.00;0.30;;;;;;;;;;5081148;28;20036;-53
2021/07/06 07:22:20;;;;;;;1.60;0.20;;;;;;;;;;5083120;28;20280;-55
2021/07/06 07:24:46;;;;;;;0.50;0.20;;;;;;;;;;5082782;28;20277;-54
2021/07/06 07:27:11;;;;;;;1.17;0.20;;;;;;;;;;5079659;28;20028;-56
2021/07/06 07:29:36;;;;;;;0.20;0.10;;;;;;;;;;5084676;28;20024;-55
2021/07/06 07:32:02;;;;;;;0.10;0.10;;;;;;;;;;5075861;28;20066;-52
2021/07/06 07:34:27;;;;;;;1.38;0.20;;;;;;;;;;5090278;28;20510;-53
2021/07/06 07:36:53;;;;;;;0.60;0.20;;;;;;;;;;5082058;28;20391;-54
2021/07/06 07:39:18;;;;;;;0.85;0.20;;;;;;;;;;5082394;28;20028;-54
2021/07/06 07:41:43;;;;;;;0.80;0.20;;;;;;;;;;5077575;28;20027;-54
2021/07/06 07:44:09;;;;;;;0.60;0.10;;;;;;;;;;5085106;28;20107;-54
2021/07/06 07:46:34;;;;;;;0.70;0.15;;;;;;;;;;5080939;28;20371;-55
2021/07/06 07:49:00;;;;;;;1.30;0.13;;;;;;;;;;5090887;28;20028;-54
2021/07/06 07:51:25;;;;;;;0.35;0.10;;;;;;;;;;5079326;28;20503;-56
2021/07/06 07:53:50;;;;;;;0.50;0.20;;;;;;;;;;5085910;28;20017;-54
2021/07/06 07:56:16;;;;;;;0.57;0.10;;;;;;;;;;5082434;28;20104;-54
2021/07/06 07:58:41;;;;;;;0.28;0.20;;;;;;;;;;5074439;28;20456;-54
2021/07/06 08:01:06;;;;;;;0.40;0.10;;;;;;;;;;5078967;28;20877;-55
2021/07/06 08:03:31;;;;;;;1.08;0.10;;;;;;;;;;5078126;28;20373;-55
2021/07/06 08:05:58;;;;;;;0.88;0.20;;;;;;;;;;5079823;28;20097;-53
2021/07/06 08:08:23;;;;;;;1.20;0.20;;;;;;;;;;5080372;28;20162;-55
2021/07/06 08:10:52;;;;;;;1.85;0.10;;;;;;;;;;5079694;28;20106;-54
2021/07/06 08:13:19;;;;;;;0.68;0.10;;;;;;;;;;5086904;28;20037;-54
2021/07/06 08:15:44;;;;;;;0.40;0.10;;;;;;;;;;5082780;28;20073;-51
2021/07/06 08:18:10;;;;;;;0.35;0.10;;;;;;;;;;5085031;28;20113;-54
2021/07/06 08:20:35;;;;;;;0.30;0.10;;;;;;;;;;5082327;28;20294;-55
2021/07/06 08:23:00;;;;;;;0.52;0.20;;;;;;;;;;5086473;28;20011;-52
2021/07/06 08:25:26;;;;;;;0.50;0.10;;;;;;;;;;5084695;28;20031;-54
2021/07/06 08:27:51;;;;;;;1.27;0.15;;;;;;;;;;5083575;28;20019;-54
2021/07/06 08:30:17;;;;;;;0.20;0.10;;;;;;;;;;5075648;28;20495;-52
2021/07/06 08:32:42;;;;;;;0.17;0.10;;;;;;;;;;5086530;28;20538;-55
2021/07/06 08:35:07;;;;;;;0.10;0.10;;;;;;;;;;5090594;28;20019;-55
2021/07/06 08:37:33;;;;;;;0.22;0.10;;;;;;;;;;5095373;28;20254;-52
2021/07/06 08:39:59;;;;;;;0.50;0.10;;;;;;;;;;5078039;28;20016;-54
2021/07/06 08:42:25;;;;;;;0.63;0.10;;;;;;;;;;5080765;28;20016;-52
2021/07/06 08:44:50;;;;;;;0.75;0.10;;;;;;;;;;5081763;28;20020;-56
2021/07/06 08:47:16;;;;;;;0.47;0.15;;;;;;;;;;5084684;28;20028;-54
2021/07/06 08:49:42;;;;;;;0.20;0.10;;;;;;;;;;5092839;28;20027;-55
2021/07/06 08:52:09;;;;;;;0.10;0.10;;;;;;;;;;5083026;28;20464;-55
2021/07/06 08:54:34;;;;;;;1.17;0.10;;;;;;;;;;5085833;28;20114;-55
2021/07/06 08:57:00;;;;;;;0.82;0.20;;;;;;;;;;5089959;28;20072;-52
2021/07/06 08:59:25;;;;;;;0.68;0.10;;;;;;;;;;5088333;28;20027;-53
2021/07/06 09:01:51;;;;;;;0.57;0.10;;;;;;;;;;5082436;28;20437;-54
2021/07/06 09:04:16;;;;;;;1.38;0.10;;;;;;;;;;5087776;28;20849;-54
2021/07/06 09:06:54;;;;;;;0.20;0.10;;;;;;;;;;5090867;28;20047;-55
2021/07/06 09:09:24;;;;;;;1.02;0.15;;;;;;;;;;5085744;28;20282;-56
2021/07/06 09:11:50;;;;;;;0.43;0.10;;;;;;;;;;5084862;28;20024;-52
2021/07/06 09:14:15;;;;;;;0.28;0.10;;;;;;;;;;5088230;28;20091;-53
2021/07/06 09:16:41;;;;;;;0.63;0.10;;;;;;;;;;5083886;28;20103;-53
2021/07/06 09:19:23;;;;;;;0.30;0.10;;;;;;;;;;5088786;28;20035;-55
2021/07/06 09:22:07;;;;;;;0.20;0.10;;;;;;;;;;5091098;28;20090;-56
2021/07/06 09:24:33;;;;;;;0.20;0.10;;;;;;;;;;5086896;28;20066;-54
2021/07/06 09:27:17;;;;;;;2.33;0.20;;;;;;;;;;5079675;28;20573;-55
2021/07/06 09:30:00;;;;;;;1.60;0.55;;;;;;;;;;5073926;28;20032;-56
2021/07/06 09:32:25;;;;;;;1.02;0.10;;;;;;;;;;5082371;28;20016;-55
2021/07/06 09:34:50;;;;;;;0.20;0.10;;;;;;;;;;5082856;28;20433;-55
2021/07/06 09:37:17;;;;;;;1.80;0.17;;;;;;;;;;5089514;28;20666;-55
2021/07/06 09:39:43;;;;;;;2.00;0.10;;;;;;;;;;5087636;28;20051;-54
2021/07/06 09:42:11;;;;;;;0.20;0.10;;;;;;;;;;5080749;28;20028;-55
2021/07/06 09:44:40;;;;;;;0.20;0.10;;;;;;;;;;5076847;28;20029;-52
2021/07/06 09:47:08;;;;;;;1.67;0.20;;;;;;;;;;5075610;28;20034;-56
2021/07/06 09:49:43;;;;;;;0.77;0.40;;;;;;;;;;5087270;28;20073;-54
2021/07/06 09:52:10;;;;;;;0.43;0.10;;;;;;;;;;5086240;28;20027;-55
2021/07/06 09:54:37;;;;;;;0.95;0.10;;;;;;;;;;5084271;28;20077;-56
2021/07/06 09:57:04;;;;;;;0.63;0.10;;;;;;;;;;5082367;28;20016;-53
2021/07/06 09:59:29;;;;;;;0.40;0.10;;;;;;;;;;5081637;28;20055;-56
2021/07/06 10:01:55;;;;;;;0.90;0.10;;;;;;;;;;5084717;28;20055;-54
2021/07/06 10:04:23;;;;;;;0.38;0.10;;;;;;;;;;5082614;28;20511;-55
2021/07/06 10:06:48;;;;;;;0.10;0.10;;;;;;;;;;5078177;28;20024;-55
2021/07/06 10:09:14;;;;;;;0.95;0.10;;;;;;;;;;5078882;28;20024;-56
2021/07/06 10:11:40;;;;;;;1.42;0.10;;;;;;;;;;5089199;28;20408;-54
2021/07/06 10:14:05;;;;;;;0.10;0.10;;;;;;;;;;5084333;28;20020;-56
2021/07/06 10:16:30;;;;;;;0.20;0.10;;;;;;;;;;5086909;28;20390;-55
2021/07/06 10:18:56;;;;;;;0.77;0.10;;;;;;;;;;5090589;28;20020;-56
2021/07/06 10:21:21;;;;;;;0.40;0.10;;;;;;;;;;5086926;28;20278;-55
2021/07/06 10:23:50;;;;;;;0.52;0.10;;;;;;;;;;5080710;28;20059;-56
2021/07/06 10:26:20;;;;;;;1.17;0.20;;;;;;;;;;5080079;28;20044;-52
2021/07/06 10:28:50;;;;;;;0.50;0.30;;;;;;;;;;5077578;28;20392;-54
2021/07/06 10:31:16;;;;;;;0.32;0.17;;;;;;;;;;5077628;28;20027;-54
2021/07/06 10:33:43;;;;;;;0.68;0.10;;;;;;;;;;5083204;28;20020;-56
2021/07/06 10:36:08;;;;;;;1.25;0.10;;;;;;;;;;5083916;28;20051;-55
2021/07/06 10:38:38;;;;;;;0.30;0.10;;;;;;;;;;5091919;28;20059;-55
2021/07/06 10:41:41;;;;;;;0.13;0.10;;;;;;;;;;5076410;28;20020;-55
2021/07/06 10:44:07;;;;;;;0.32;0.10;;;;;;;;;;5072543;28;20032;-52
2021/07/06 10:46:38;;;;;;;0.20;0.10;;;;;;;;;;5072672;28;20115;-55
2021/07/06 10:49:09;;;;;;;1.17;0.10;;;;;;;;;;5081057;28;20525;-54
2021/07/06 10:51:34;;;;;;;0.90;0.10;;;;;;;;;;5076480;28;20020;-54
2021/07/06 10:54:02;;;;;;;0.10;0.10;;;;;;;;;;5085932;28;20020;-52
2021/07/06 10:56:30;;;;;;;0.30;0.10;;;;;;;;;;5091036;28;20467;-55
2021/07/06 10:59:00;;;;;;;0.85;0.10;;;;;;;;;;5086883;28;20433;-56
2021/07/06 11:01:41;;;;;;;0.80;0.10;;;;;;;;;;5077833;28;20501;-54
2021/07/06 11:04:10;;;;;;;0.57;0.15;;;;;;;;;;5086937;28;20124;-52
2021/07/06 11:06:44;;;;;;;0.77;0.10;;;;;;;;;;5089894;28;20076;-55
2021/07/06 11:09:10;;;;;;;0.22;0.10;;;;;;;;;;5087131;28;20108;-54
2021/07/06 11:11:36;;;;;;;0.13;0.13;;;;;;;;;;5071022;28;20108;-54
2021/07/06 11:14:16;;;;;;;1.70;0.30;;;;;;;;;;5087366;28;20451;-53
2021/07/06 11:16:41;;;;;;;0.30;0.10;;;;;;;;;;5079255;28;20044;-54
2021/07/06 11:19:39;;;;;;;0.60;0.10;;;;;;;;;;5089501;28;20067;-54
2021/07/06 11:22:14;;;;;;;1.55;0.10;;;;;;;;;;5038891;28;20290;-52
2021/07/06 11:24:43;;;;;;;0.32;0.10;;;;;;;;;;5088375;28;20028;-52
2021/07/06 11:27:08;;;;;;;0.10;0.08;;;;;;;;;;5085867;28;20017;-54
2021/07/06 11:29:37;;;;;;;0.30;0.20;;;;;;;;;;5083579;28;20080;-53
2021/07/06 11:32:11;;;;;;;2.63;0.10;;;;;;;;;;5078278;28;20017;-54
2021/07/06 11:34:37;;;;;;;1.67;0.13;;;;;;;;;;5084828;28;20166;-53
2021/07/06 11:37:03;;;;;;;1.55;0.10;;;;;;;;;;5083026;28;20024;-55
2021/07/06 11:39:28;;;;;;;0.93;0.30;;;;;;;;;;5089844;28;20027;-53
2021/07/06 11:41:54;;;;;;;0.63;0.10;;;;;;;;;;5080972;28;20032;-55
2021/07/06 11:44:19;;;;;;;0.30;0.10;;;;;;;;;;5087320;28;20738;-56
2021/07/06 11:46:44;;;;;;;0.75;0.10;;;;;;;;;;5095456;28;20536;-56
2021/07/06 11:49:09;;;;;;;0.20;0.13;;;;;;;;;;5086819;28;20463;-54
2021/07/06 11:51:39;;;;;;;0.97;0.20;;;;;;;;;;5084198;28;20012;-53
2021/07/06 11:54:04;;;;;;;1.50;0.10;;;;;;;;;;5088196;28;20446;-54
2021/07/06 11:56:31;;;;;;;0.30;0.10;;;;;;;;;;5085329;28;20099;-53
2021/07/06 11:58:57;;;;;;;0.13;0.10;;;;;;;;;;5088870;28;20107;-53
2021/07/06 12:01:22;;;;;;;1.20;0.10;;;;;;;;;;5084501;28;20150;-54
2021/07/06 12:03:47;;;;;;;0.57;0.10;;;;;;;;;;5085804;28;20297;-54
2021/07/06 12:06:14;;;;;;;0.10;0.10;;;;;;;;;;5082880;28;20132;-55
2021/07/06 12:08:43;;;;;;;0.63;0.10;;;;;;;;;;5093885;28;20601;-55
2021/07/06 12:11:09;;;;;;;0.98;0.10;;;;;;;;;;5081766;28;20032;-55
2021/07/06 12:13:36;;;;;;;0.82;0.10;;;;;;;;;;5083774;28;20093;-54
2021/07/06 12:16:03;;;;;;;1.30;0.10;;;;;;;;;;5086484;28;20452;-55
2021/07/06 12:18:29;;;;;;;0.10;0.10;;;;;;;;;;5091574;28;20020;-55
2021/07/06 12:21:06;;;;;;;0.20;0.10;;;;;;;;;;5086187;28;20020;-54
2021/07/06 12:23:31;;;;;;;0.30;0.10;;;;;;;;;;5084029;28;20020;-53
2021/07/06 12:25:58;;;;;;;0.40;0.10;;;;;;;;;;5095123;28;20103;-55
2021/07/06 12:28:24;;;;;;;2.55;0.10;;;;;;;;;;5081608;28;20021;-54
2021/07/06 12:31:08;;;;;;;0.35;0.15;;;;;;;;;;5081847;28;20090;-54
2021/07/06 12:33:33;;;;;;;;;;;;;;;;;;5094632;28;20016;-54
2021/07/06 12:35:58;;;;;;;1.95;0.20;;;;;;;;;;5089267;28;19908;-54
2021/07/06 12:38:27;;;;;;;0.70;0.13;;;;;;;;;;5088086;28;20016;-54
2021/07/06 12:40:52;;;;;;;2.03;0.20;;;;;;;;;;5091825;28;20043;-56
2021/07/06 12:43:21;;;;;;;1.60;0.10;;;;;;;;;;5086181;28;20021;-55
2021/07/06 12:45:46;;;;;;;0.63;0.20;;;;;;;;;;5092495;28;20548;-56
2021/07/06 12:48:23;;;;;;;1.33;0.10;;;;;;;;;;5091554;28;20020;-55
2021/07/06 12:50:48;;;;;;;1.02;0.30;;;;;;;;;;5090718;28;20036;-55
2021/07/06 12:53:20;;;;;;;0.97;0.17;;;;;;;;;;5081001;28;20027;-50
2021/07/06 12:55:47;;;;;;;1.33;0.47;;;;;;;;;;5080044;28;20035;-57
2021/07/06 12:58:12;;;;;;;1.42;0.13;;;;;;;;;;5086382;28;20008;-55
2021/07/06 13:00:38;;;;;;;0.90;0.10;;;;;;;;;;5083750;28;20095;-55
2021/07/06 13:03:05;;;;;;;0.20;0.10;;;;;;;;;;5077720;28;20063;-52
2021/07/06 13:05:38;;;;;;;3.10;0.40;;;;;;;;;;5076457;28;20560;-54
2021/07/06 13:08:05;;;;;;;0.10;0.10;;;;;;;;;;5078755;28;20034;-55
2021/07/06 13:10:33;;;;;;;1.20;0.10;;;;;;;;;;5083962;28;20020;-55
2021/07/06 13:13:00;;;;;;;0.30;0.20;;;;;;;;;;5093937;28;20149;-54
2021/07/06 13:15:26;;;;;;;1.05;0.20;;;;;;;;;;5084338;28;20017;-52
2021/07/06 13:17:51;;;;;;;0.30;0.20;;;;;;;;;;5083571;28;20024;-57
2021/07/06 13:20:18;;;;;;;0.30;0.13;;;;;;;;;;5078150;28;20540;-54
2021/07/06 13:22:44;;;;;;;0.47;0.10;;;;;;;;;;5084363;28;20091;-56
2021/07/06 13:25:10;;;;;;;0.32;0.20;;;;;;;;;;5089769;28;20165;-56
2021/07/06 13:27:35;;;;;;;0.40;0.10;;;;;;;;;;5080323;28;20016;-56
2021/07/06 13:30:06;;;;;;;0.20;0.10;;;;;;;;;;5076015;28;20029;-54
2021/07/06 13:32:35;;;;;;;0.55;0.17;;;;;;;;;;5084933;28;20028;-54
2021/07/06 13:35:01;;;;;;;0.13;0.10;;;;;;;;;;5085106;28;20471;-53
2021/07/06 13:37:29;;;;;;;1.45;0.20;;;;;;;;;;5086698;28;20066;-54
2021/07/06 13:39:54;;;;;;;0.32;0.13;;;;;;;;;;5086420;28;20028;-55
2021/07/06 13:42:19;;;;;;;0.93;0.20;;;;;;;;;;5084654;28;20035;-56
2021/07/06 13:44:45;;;;;;;0.77;0.30;;;;;;;;;;5078448;28;20016;-56
2021/07/06 13:47:10;;;;;;;0.55;0.10;;;;;;;;;;5077972;28;20074;-55
2021/07/06 13:49:35;;;;;;;0.10;0.10;;;;;;;;;;5076775;28;20422;-54
2021/07/06 13:52:01;;;;;;;2.03;0.17;;;;;;;;;;5076388;28;20478;-55
2021/07/06 13:54:29;;;;;;;1.85;0.20;;;;;;;;;;5085439;28;20032;-55
2021/07/06 13:56:56;;;;;;;0.25;0.10;;;;;;;;;;5078693;28;20497;-56
2021/07/06 13:59:22;;;;;;;1.45;0.20;;;;;;;;;;5093524;28;20399;-54
2021/07/06 14:01:47;;;;;;;0.70;0.10;;;;;;;;;;5087244;28;20024;-54
2021/07/06 14:04:12;;;;;;;0.20;0.10;;;;;;;;;;5086259;28;20040;-55
2021/07/06 14:06:37;;;;;;;0.40;0.10;;;;;;;;;;5090678;28;20375;-55
2021/07/06 14:09:03;;;;;;;7.67;0.43;;;;;;;;;;5075113;28;20024;-56
2021/07/06 14:11:28;;;;;;;5.85;0.30;;;;;;;;;;5075403;28;20024;-54
2021/07/06 14:13:53;;;;;;;4.30;0.20;;;;;;;;;;5083035;28;20035;-55
2021/07/06 14:16:18;;;;;;;3.53;0.40;;;;;;;;;;5088947;28;20012;-54
2021/07/06 14:18:44;;;;;;;1.88;0.25;;;;;;;;;;5089581;28;20277;-54
2021/07/06 14:21:09;;;;;;;4.30;0.32;;;;;;;;;;5077815;28;20020;-53
2021/07/06 14:23:35;;;;;;;3.92;0.40;;;;;;;;;;5081041;28;20032;-54
2021/07/06 14:26:02;;;;;;;1.93;0.40;;;;;;;;;;5093196;28;20022;-52
2021/07/06 14:28:28;;;;;;;3.78;0.50;;;;;;;;;;5078329;28;20926;-54
2021/07/06 14:30:53;;;;;;;1.58;0.50;;;;;;;;;;5074570;28;20108;-54
2021/07/06 14:33:18;;;;;;;2.90;0.50;;;;;;;;;;5076448;28;20021;-52
2021/07/06 14:35:44;;;;;;;4.07;1.10;;;;;;;;;;5079179;28;20274;-49
2021/07/06 14:38:09;;;;;;;1.58;0.68;;;;;;;;;;5079036;28;20024;-53